Time;durP1;ratioP1;P1;durP2;ratioP2;P2;SDS_P1;SDS_P2;PMS_P1;PMS_P2;Temp;Humidity;BMP_temperature;BMP_pressure;BME280_temperature;BME280_humidity;BME280_pressure;Samples;Min_cycle;Max_cycle;Signal;HPM_P1;HPM_P2
2021/12/29 00:00:36;;;;;;;19.80;12.82;;;;;;;;;;5342845;27;20153;-86
2021/12/29 00:03:07;;;;;;;23.90;13.50;;;;;;;;;;5358154;27;20040;-86
2021/12/29 00:05:38;;;;;;;22.00;12.27;;;;;;;;;;5363245;27;20065;-86
2021/12/29 00:08:09;;;;;;;20.30;12.55;;;;;;;;;;5363634;27;20028;-86
2021/12/29 00:10:41;;;;;;;19.05;11.95;;;;;;;;;;5364086;27;20089;-86
2021/12/29 00:13:12;;;;;;;20.58;12.02;;;;;;;;;;5362744;27;20101;-86
2021/12/29 00:15:43;;;;;;;20.13;12.35;;;;;;;;;;5363824;27;20032;-86
2021/12/29 00:18:14;;;;;;;19.75;12.48;;;;;;;;;;5364329;27;20050;-86
2021/12/29 00:20:46;;;;;;;18.95;11.65;;;;;;;;;;5361603;27;20026;-86
2021/12/29 00:23:17;;;;;;;16.27;11.48;;;;;;;;;;5362527;27;20048;-86
2021/12/29 00:25:48;;;;;;;18.50;12.02;;;;;;;;;;5356359;27;20415;-86
2021/12/29 00:28:19;;;;;;;16.60;10.93;;;;;;;;;;5348025;27;20028;-86
2021/12/29 00:30:51;;;;;;;20.10;12.13;;;;;;;;;;5342976;27;20036;-86
2021/12/29 00:33:22;;;;;;;14.45;10.20;;;;;;;;;;5349634;27;20436;-86
2021/12/29 00:35:53;;;;;;;17.38;12.00;;;;;;;;;;5348537;27;20031;-86
2021/12/29 00:38:24;;;;;;;22.23;12.83;;;;;;;;;;5349630;27;20088;-86
2021/12/29 00:40:55;;;;;;;19.67;13.15;;;;;;;;;;5348283;27;20031;-86
2021/12/29 00:43:27;;;;;;;19.57;13.60;;;;;;;;;;5348563;27;20023;-86
2021/12/29 00:45:58;;;;;;;22.38;13.35;;;;;;;;;;5348224;27;20265;-86
2021/12/29 00:48:35;;;;;;;24.97;15.03;;;;;;;;;;5347125;27;20460;-86
2021/12/29 00:51:07;;;;;;;24.25;13.73;;;;;;;;;;5348237;27;20015;-86
2021/12/29 00:53:38;;;;;;;20.30;14.52;;;;;;;;;;5347631;27;20031;-86
2021/12/29 00:56:10;;;;;;;23.80;14.88;;;;;;;;;;5347542;27;20040;-86
2021/12/29 00:58:41;;;;;;;22.65;15.15;;;;;;;;;;5347491;27;20444;-86
2021/12/29 01:01:12;;;;;;;21.90;14.63;;;;;;;;;;5348341;27;20027;-86
2021/12/29 01:03:46;;;;;;;29.00;16.17;;;;;;;;;;5343120;27;20028;-86
2021/12/29 01:06:17;;;;;;;23.17;15.90;;;;;;;;;;5346409;27;20460;-86
2021/12/29 01:08:49;;;;;;;24.87;17.33;;;;;;;;;;5347206;27;20142;-86
2021/12/29 01:11:20;;;;;;;22.42;15.30;;;;;;;;;;5347467;27;20030;-85
2021/12/29 01:13:51;;;;;;;24.47;17.63;;;;;;;;;;5345808;27;20043;-86
2021/12/29 01:19:08;;;;;;;26.70;16.50;;;;;;;;;;5339352;27;20326;-86
2021/12/29 01:21:40;;;;;;;29.25;16.40;;;;;;;;;;5347384;27;20085;-86
2021/12/29 01:24:12;;;;;;;28.25;17.20;;;;;;;;;;5345604;27;20019;-86
2021/12/29 01:26:44;;;;;;;26.42;17.70;;;;;;;;;;5345743;27;20050;-86
2021/12/29 01:29:16;;;;;;;30.52;18.42;;;;;;;;;;5345423;27;20412;-86
2021/12/29 01:31:47;;;;;;;26.65;17.77;;;;;;;;;;5345113;27;20032;-86
2021/12/29 01:34:18;;;;;;;28.83;17.73;;;;;;;;;;5346100;27;20064;-86
2021/12/29 01:36:50;;;;;;;28.38;17.13;;;;;;;;;;5345626;27;20070;-86
2021/12/29 01:39:22;;;;;;;29.35;18.45;;;;;;;;;;5347510;27;20051;-86
2021/12/29 01:41:55;;;;;;;26.42;17.05;;;;;;;;;;5346213;27;20043;-86
2021/12/29 01:44:27;;;;;;;30.35;17.48;;;;;;;;;;5347586;27;20421;-86
2021/12/29 01:46:58;;;;;;;27.95;17.63;;;;;;;;;;5345922;27;20028;-86
2021/12/29 01:49:31;;;;;;;29.63;18.40;;;;;;;;;;5347056;27;20019;-86
2021/12/29 01:52:09;;;;;;;24.05;16.60;;;;;;;;;;5347029;27;20023;-86
2021/12/29 01:54:41;;;;;;;27.48;17.13;;;;;;;;;;5344448;27;20051;-86
2021/12/29 01:57:12;;;;;;;18.25;10.02;;;;;;;;;;5344066;27;20028;-86
2021/12/29 01:59:44;;;;;;;22.05;16.67;;;;;;;;;;5346160;27;20024;-86
2021/12/29 02:02:15;;;;;;;25.23;17.38;;;;;;;;;;5347571;27;20031;-86
2021/12/29 02:04:46;;;;;;;29.52;17.77;;;;;;;;;;5346370;27;20395;-86
2021/12/29 02:07:18;;;;;;;26.70;17.83;;;;;;;;;;5346220;27;20025;-86
2021/12/29 02:09:49;;;;;;;32.45;18.02;;;;;;;;;;5345193;27;20184;-86
2021/12/29 02:12:20;;;;;;;33.00;20.60;;;;;;;;;;5346179;27;20096;-86
2021/12/29 02:14:52;;;;;;;28.77;18.40;;;;;;;;;;5344666;27;20039;-86
2021/12/29 02:17:23;;;;;;;27.50;15.43;;;;;;;;;;5345419;27;20020;-86
2021/12/29 02:19:58;;;;;;;30.08;17.67;;;;;;;;;;5344714;27;20161;-86
2021/12/29 02:22:43;;;;;;;31.85;18.90;;;;;;;;;;5346413;27;20032;-86
2021/12/29 02:27:48;;;;;;;38.30;21.38;;;;;;;;;;5343678;27;20043;-86
2021/12/29 02:30:20;;;;;;;36.88;20.65;;;;;;;;;;5346198;27;20027;-86
2021/12/29 02:32:55;;;;;;;33.90;20.75;;;;;;;;;;5347418;27;20356;-86
2021/12/29 02:35:26;;;;;;;30.55;20.77;;;;;;;;;;5346297;27;20487;-86
2021/12/29 02:37:59;;;;;;;37.63;22.40;;;;;;;;;;5345971;27;20060;-86
2021/12/29 02:40:31;;;;;;;30.88;20.63;;;;;;;;;;5347148;27;20118;-86
2021/12/29 02:43:03;;;;;;;32.92;20.73;;;;;;;;;;5345961;27;20134;-86
2021/12/29 02:45:34;;;;;;;34.38;21.20;;;;;;;;;;5345973;27;20011;-86
2021/12/29 02:48:05;;;;;;;36.17;21.65;;;;;;;;;;5347660;27;20036;-86
2021/12/29 02:50:37;;;;;;;30.20;18.77;;;;;;;;;;5346267;27;20050;-86
2021/12/29 02:53:09;;;;;;;27.33;18.20;;;;;;;;;;5347267;27;20031;-86
2021/12/29 02:55:41;;;;;;;30.67;18.20;;;;;;;;;;5347295;27;20186;-86
2021/12/29 02:58:12;;;;;;;33.60;20.70;;;;;;;;;;5344423;27;20122;-86
2021/12/29 03:00:43;;;;;;;31.80;19.60;;;;;;;;;;5346764;27;20023;-86
2021/12/29 03:03:19;;;;;;;33.00;19.20;;;;;;;;;;5347176;27;20846;-86
2021/12/29 03:05:51;;;;;;;36.00;21.00;;;;;;;;;;5346080;27;20038;-86
2021/12/29 03:08:22;;;;;;;32.63;19.88;;;;;;;;;;5346361;27;20099;-86
2021/12/29 03:10:54;;;;;;;34.08;21.83;;;;;;;;;;5351022;27;20008;-86
2021/12/29 03:13:26;;;;;;;32.60;20.20;;;;;;;;;;5345462;27;20515;-86
2021/12/29 03:15:58;;;;;;;34.92;19.85;;;;;;;;;;5346291;27;20023;-86
2021/12/29 03:18:29;;;;;;;32.50;19.48;;;;;;;;;;5346646;27;20031;-86
2021/12/29 03:21:01;;;;;;;36.83;21.55;;;;;;;;;;5344147;27;20106;-86
2021/12/29 03:23:32;;;;;;;36.58;22.80;;;;;;;;;;5346253;27;20032;-86
2021/12/29 03:26:03;;;;;;;41.17;22.60;;;;;;;;;;5346247;27;20050;-86
2021/12/29 03:28:37;;;;;;;39.33;22.73;;;;;;;;;;5344270;27;20031;-86
2021/12/29 03:31:11;;;;;;;38.75;21.65;;;;;;;;;;5346124;27;20024;-86
2021/12/29 03:33:43;;;;;;;32.25;19.65;;;;;;;;;;5345024;27;20379;-86
2021/12/29 03:36:15;;;;;;;30.70;21.33;;;;;;;;;;5346376;27;20027;-86
2021/12/29 03:38:48;;;;;;;35.75;21.17;;;;;;;;;;5351282;27;20031;-86
2021/12/29 03:41:20;;;;;;;36.60;20.52;;;;;;;;;;5345806;27;20050;-87
2021/12/29 03:43:51;;;;;;;37.55;21.67;;;;;;;;;;5346065;27;20036;-86
2021/12/29 03:46:25;;;;;;;38.30;21.35;;;;;;;;;;5345859;27;20369;-87
2021/12/29 03:48:57;;;;;;;35.17;20.58;;;;;;;;;;5345329;27;20431;-87
2021/12/29 03:51:28;;;;;;;32.80;19.63;;;;;;;;;;5355241;27;20090;-86
2021/12/29 03:54:02;;;;;;;33.27;19.90;;;;;;;;;;5355923;27;20036;-86
2021/12/29 03:56:33;;;;;;;29.85;20.40;;;;;;;;;;5345538;27;20089;-86
2021/12/29 03:59:04;;;;;;;31.80;19.98;;;;;;;;;;5346423;27;20028;-86
2021/12/29 04:01:36;;;;;;;33.67;20.55;;;;;;;;;;5348449;27;20028;-86
2021/12/29 04:04:07;;;;;;;35.50;20.23;;;;;;;;;;5344500;27;20054;-86
2021/12/29 04:06:38;;;;;;;32.05;20.35;;;;;;;;;;5352362;27;20016;-87
2021/12/29 04:09:09;;;;;;;37.40;20.17;;;;;;;;;;5359371;27;20036;-86
2021/12/29 04:11:40;;;;;;;36.22;18.98;;;;;;;;;;5360649;27;20020;-86
2021/12/29 04:14:12;;;;;;;32.50;19.93;;;;;;;;;;5360814;27;20077;-86
2021/12/29 04:16:46;;;;;;;32.00;20.67;;;;;;;;;;5358771;27;20282;-87
2021/12/29 04:19:29;;;;;;;38.13;21.92;;;;;;;;;;5361009;27;20023;-86
2021/12/29 04:22:01;;;;;;;31.50;20.48;;;;;;;;;;5360625;27;20023;-86
2021/12/29 04:24:32;;;;;;;33.33;19.70;;;;;;;;;;5361138;27;20019;-86
2021/12/29 04:27:06;;;;;;;34.92;20.98;;;;;;;;;;5359975;27;20034;-87
2021/12/29 04:29:37;;;;;;;29.52;19.25;;;;;;;;;;5361097;27;20365;-86
2021/12/29 04:32:08;;;;;;;30.40;18.38;;;;;;;;;;5356150;27;20016;-86
2021/12/29 04:34:39;;;;;;;28.10;19.27;;;;;;;;;;5353337;27;20039;-86
2021/12/29 04:37:11;;;;;;;32.30;19.67;;;;;;;;;;5351311;27;20019;-87
2021/12/29 04:39:42;;;;;;;34.83;20.25;;;;;;;;;;5352805;27;20268;-87
2021/12/29 04:42:13;;;;;;;30.88;21.15;;;;;;;;;;5350923;27;20032;-86
2021/12/29 04:44:44;;;;;;;37.47;20.15;;;;;;;;;;5352260;27;20042;-86
2021/12/29 04:47:15;;;;;;;29.57;20.70;;;;;;;;;;5351945;27;20028;-86
2021/12/29 04:49:47;;;;;;;32.30;19.48;;;;;;;;;;5348430;27;20389;-87
2021/12/29 04:52:19;;;;;;;32.90;19.13;;;;;;;;;;5348220;27;20066;-86
2021/12/29 04:54:50;;;;;;;31.40;18.40;;;;;;;;;;5349433;27;20071;-86
2021/12/29 04:57:21;;;;;;;27.75;18.80;;;;;;;;;;5350398;27;20028;-86
2021/12/29 04:59:52;;;;;;;31.95;19.13;;;;;;;;;;5349216;27;20024;-86
2021/12/29 05:02:23;;;;;;;29.65;19.42;;;;;;;;;;5349623;27;20016;-86
2021/12/29 05:04:59;;;;;;;30.92;19.33;;;;;;;;;;5348940;27;20031;-86
2021/12/29 05:10:20;;;;;;;31.48;19.40;;;;;;;;;;5348242;27;20031;-86
2021/12/29 05:12:51;;;;;;;29.33;19.15;;;;;;;;;;5347216;27;20035;-86
2021/12/29 05:15:22;;;;;;;32.43;18.97;;;;;;;;;;5348050;27;20044;-86
2021/12/29 05:17:55;;;;;;;34.28;19.52;;;;;;;;;;5349457;27;20249;-86
2021/12/29 05:20:28;;;;;;;38.72;20.45;;;;;;;;;;5350734;27;20032;-86
2021/12/29 05:22:59;;;;;;;35.88;19.55;;;;;;;;;;5347753;27;20019;-86
2021/12/29 05:25:30;;;;;;;41.42;21.40;;;;;;;;;;5347802;27;20480;-86
2021/12/29 05:28:02;;;;;;;35.10;19.98;;;;;;;;;;5348820;27;20066;-86
2021/12/29 05:30:33;;;;;;;29.25;19.23;;;;;;;;;;5348433;27;20542;-86
2021/12/29 05:33:05;;;;;;;31.35;18.38;;;;;;;;;;5348738;27;20557;-86
2021/12/29 05:35:36;;;;;;;31.00;19.48;;;;;;;;;;5348031;27;20023;-86
2021/12/29 05:38:07;;;;;;;31.60;19.63;;;;;;;;;;5347172;27;20024;-86
2021/12/29 05:40:38;;;;;;;29.20;18.30;;;;;;;;;;5348491;27;20032;-86
2021/12/29 05:43:10;;;;;;;33.97;19.80;;;;;;;;;;5348586;27;20026;-86
2021/12/29 05:45:41;;;;;;;29.93;19.73;;;;;;;;;;5347853;27;21307;-86
2021/12/29 05:48:12;;;;;;;33.77;18.37;;;;;;;;;;5346959;27;20634;-86
2021/12/29 05:50:43;;;;;;;38.03;20.17;;;;;;;;;;5348129;27;20261;-86
2021/12/29 05:53:14;;;;;;;28.88;19.30;;;;;;;;;;5348399;27;20320;-86
2021/12/29 05:55:46;;;;;;;32.70;18.52;;;;;;;;;;5348138;27;20012;-86
2021/12/29 05:58:17;;;;;;;35.88;18.63;;;;;;;;;;5348112;27;20168;-86
2021/12/29 06:00:48;;;;;;;25.90;17.45;;;;;;;;;;5348329;27;20016;-86
2021/12/29 06:03:20;;;;;;;32.00;17.58;;;;;;;;;;5348210;27;20143;-86
2021/12/29 06:05:51;;;;;;;32.58;17.52;;;;;;;;;;5344655;27;20024;-86
2021/12/29 06:08:23;;;;;;;31.65;17.33;;;;;;;;;;5347301;27;20039;-86
2021/12/29 06:10:54;;;;;;;34.35;17.75;;;;;;;;;;5343507;27;20483;-86
2021/12/29 06:13:26;;;;;;;34.03;17.93;;;;;;;;;;5345368;27;20427;-86
2021/12/29 06:15:57;;;;;;;31.60;16.83;;;;;;;;;;5342153;27;20266;-86
2021/12/29 06:18:29;;;;;;;30.65;18.30;;;;;;;;;;5345150;27;20100;-86
2021/12/29 06:21:00;;;;;;;31.37;17.30;;;;;;;;;;5346733;27;20103;-86
2021/12/29 06:23:31;;;;;;;31.23;16.90;;;;;;;;;;5345444;27;20262;-86
2021/12/29 06:26:02;;;;;;;28.10;15.60;;;;;;;;;;5346751;27;20024;-86
2021/12/29 06:28:33;;;;;;;27.53;15.73;;;;;;;;;;5345757;27;20061;-86
2021/12/29 06:31:05;;;;;;;25.63;15.73;;;;;;;;;;5346699;27;20331;-86
2021/12/29 06:33:36;;;;;;;23.45;15.55;;;;;;;;;;5345583;27;20418;-86
2021/12/29 06:36:07;;;;;;;29.77;17.00;;;;;;;;;;5346097;27;20020;-86
2021/12/29 06:38:41;;;;;;;27.83;15.30;;;;;;;;;;5347310;27;20034;-86
2021/12/29 06:41:12;;;;;;;26.58;15.25;;;;;;;;;;5342867;27;20400;-86
2021/12/29 06:43:47;;;;;;;28.27;14.73;;;;;;;;;;5347091;27;20036;-86
2021/12/29 06:46:18;;;;;;;22.88;14.88;;;;;;;;;;5346022;27;20031;-86
2021/12/29 06:48:49;;;;;;;23.13;14.20;;;;;;;;;;5346776;27;20621;-86
2021/12/29 06:51:20;;;;;;;29.55;15.20;;;;;;;;;;5346321;27;20288;-87
2021/12/29 06:53:51;;;;;;;26.33;14.43;;;;;;;;;;5346978;27;20475;-86
2021/12/29 06:56:22;;;;;;;24.38;15.82;;;;;;;;;;5345913;27;20110;-86
2021/12/29 06:58:54;;;;;;;25.27;14.60;;;;;;;;;;5346482;27;20028;-86
2021/12/29 07:01:25;;;;;;;25.90;14.90;;;;;;;;;;5343960;27;20373;-87
2021/12/29 07:03:56;;;;;;;22.73;14.77;;;;;;;;;;5346274;27;20130;-86
2021/12/29 07:06:27;;;;;;;18.67;13.95;;;;;;;;;;5344999;27;20254;-86
2021/12/29 07:08:58;;;;;;;24.02;13.57;;;;;;;;;;5349349;27;20032;-87
2021/12/29 07:11:30;;;;;;;22.13;15.10;;;;;;;;;;5348679;27;20099;-86
2021/12/29 07:14:03;;;;;;;26.97;14.47;;;;;;;;;;5348703;27;20043;-86
2021/12/29 07:16:34;;;;;;;29.20;15.95;;;;;;;;;;5348139;27;20111;-86
2021/12/29 07:19:06;;;;;;;21.13;15.57;;;;;;;;;;5349021;27;20138;-86
2021/12/29 07:21:37;;;;;;;18.88;14.00;;;;;;;;;;5345777;27;20631;-86
2021/12/29 07:24:08;;;;;;;20.35;14.65;;;;;;;;;;5346192;27;20464;-86
2021/12/29 07:26:40;;;;;;;24.00;15.20;;;;;;;;;;5345616;27;20039;-86
2021/12/29 07:29:11;;;;;;;23.75;14.13;;;;;;;;;;5347968;27;20028;-86
2021/12/29 07:31:42;;;;;;;24.80;15.33;;;;;;;;;;5346263;27;20035;-87
2021/12/29 07:34:13;;;;;;;24.45;14.63;;;;;;;;;;5343828;27;20276;-86
2021/12/29 07:36:44;;;;;;;19.52;13.52;;;;;;;;;;5348788;27;20363;-86
2021/12/29 07:39:16;;;;;;;25.38;13.82;;;;;;;;;;5349126;27;20098;-86
2021/12/29 07:41:47;;;;;;;22.73;13.20;;;;;;;;;;5349084;27;20020;-86
2021/12/29 07:44:19;;;;;;;21.85;14.20;;;;;;;;;;5348002;27;20028;-86
2021/12/29 07:46:53;;;;;;;22.92;14.00;;;;;;;;;;5347115;27;20032;-86
2021/12/29 07:49:25;;;;;;;18.35;12.88;;;;;;;;;;5349060;27;20116;-86
2021/12/29 07:51:57;;;;;;;25.05;13.30;;;;;;;;;;5346860;27;20035;-86
2021/12/29 07:54:28;;;;;;;25.87;12.90;;;;;;;;;;5349537;27;20361;-86
2021/12/29 07:56:59;;;;;;;21.92;12.70;;;;;;;;;;5347189;27;20305;-86
2021/12/29 07:59:30;;;;;;;24.05;13.40;;;;;;;;;;5345021;27;20062;-86
2021/12/29 08:02:02;;;;;;;21.73;12.77;;;;;;;;;;5347699;27;20088;-87
2021/12/29 08:04:33;;;;;;;21.50;12.88;;;;;;;;;;5347001;27;20289;-86
2021/12/29 08:07:04;;;;;;;24.05;13.25;;;;;;;;;;5337258;27;20051;-86
2021/12/29 08:09:36;;;;;;;21.60;13.05;;;;;;;;;;5326421;27;20623;-87
2021/12/29 08:12:07;;;;;;;19.70;11.93;;;;;;;;;;5330132;27;20043;-86
2021/12/29 08:14:38;;;;;;;21.65;12.50;;;;;;;;;;5349016;27;20466;-86
2021/12/29 08:17:10;;;;;;;20.23;13.00;;;;;;;;;;5347091;27;20480;-86
2021/12/29 08:19:42;;;;;;;23.80;13.30;;;;;;;;;;5346606;27;20067;-87
2021/12/29 08:22:19;;;;;;;21.98;12.20;;;;;;;;;;5347062;27;20020;-87
2021/12/29 08:24:52;;;;;;;17.67;13.10;;;;;;;;;;5346213;27;20039;-87
2021/12/29 08:27:26;;;;;;;17.80;12.43;;;;;;;;;;5349039;27;20034;-87
2021/12/29 08:30:05;;;;;;;18.20;12.85;;;;;;;;;;5344825;27;20031;-86
2021/12/29 08:32:58;;;;;;;19.23;12.80;;;;;;;;;;5346927;27;20027;-87
2021/12/29 08:35:36;;;;;;;16.50;12.50;;;;;;;;;;5345953;27;20039;-88
2021/12/29 08:38:10;;;;;;;18.63;13.00;;;;;;;;;;5345531;27;20046;-87
2021/12/29 08:40:52;;;;;;;18.30;12.68;;;;;;;;;;5347061;27;20071;-87
2021/12/29 08:43:27;;;;;;;21.60;13.38;;;;;;;;;;5345969;27;20047;-87
2021/12/29 08:45:58;;;;;;;19.88;14.80;;;;;;;;;;5337380;27;20452;-86
2021/12/29 08:48:32;;;;;;;23.15;16.42;;;;;;;;;;5345136;27;20038;-87
2021/12/29 08:51:07;;;;;;;16.63;13.77;;;;;;;;;;5347325;27;20038;-87
2021/12/29 08:53:38;;;;;;;22.48;15.40;;;;;;;;;;5346656;27;20829;-86
2021/12/29 08:56:14;;;;;;;18.92;14.07;;;;;;;;;;5346721;27;20023;-87
2021/12/29 08:58:45;;;;;;;17.07;14.43;;;;;;;;;;5345145;27;20073;-86
2021/12/29 09:01:17;;;;;;;21.38;15.23;;;;;;;;;;5345601;27;20089;-85
2021/12/29 09:03:48;;;;;;;20.85;14.23;;;;;;;;;;5347368;27;20437;-86
2021/12/29 09:06:21;;;;;;;18.45;14.60;;;;;;;;;;5352210;27;20023;-86
2021/12/29 09:08:54;;;;;;;22.48;14.10;;;;;;;;;;5348584;27;20011;-86
2021/12/29 09:11:26;;;;;;;18.05;14.00;;;;;;;;;;5348336;27;20072;-86
2021/12/29 09:13:57;;;;;;;15.50;13.77;;;;;;;;;;5350031;27;20122;-87
2021/12/29 09:16:29;;;;;;;17.55;12.80;;;;;;;;;;5346457;27;20023;-86
2021/12/29 09:19:03;;;;;;;16.83;13.05;;;;;;;;;;5347650;27;20088;-86
2021/12/29 09:21:34;;;;;;;18.63;13.43;;;;;;;;;;5346571;27;20532;-86
2021/12/29 09:24:06;;;;;;;19.55;14.05;;;;;;;;;;5347235;27;20039;-87
2021/12/29 09:26:37;;;;;;;17.70;12.70;;;;;;;;;;5346424;27;20145;-86
2021/12/29 09:29:08;;;;;;;16.35;12.65;;;;;;;;;;5347089;27;20121;-86
2021/12/29 09:31:40;;;;;;;14.57;11.65;;;;;;;;;;5348053;27;20062;-86
2021/12/29 09:34:11;;;;;;;14.20;12.07;;;;;;;;;;5346131;27;20114;-87
2021/12/29 09:36:42;;;;;;;15.13;11.70;;;;;;;;;;5354059;27;20024;-86
2021/12/29 09:39:14;;;;;;;13.00;11.57;;;;;;;;;;5347786;27;20377;-86
2021/12/29 09:41:45;;;;;;;16.90;11.10;;;;;;;;;;5348146;27;20053;-87
2021/12/29 09:44:16;;;;;;;14.65;11.23;;;;;;;;;;5344706;27;20024;-86
2021/12/29 09:46:53;;;;;;;14.82;11.10;;;;;;;;;;5346819;27;20020;-87
2021/12/29 09:49:25;;;;;;;16.65;10.90;;;;;;;;;;5344158;27;20069;-87
2021/12/29 09:51:56;;;;;;;15.27;9.68;;;;;;;;;;5342637;27;20059;-86
2021/12/29 09:54:27;;;;;;;13.93;9.95;;;;;;;;;;5346230;27;20043;-86
2021/12/29 09:57:00;;;;;;;14.68;9.90;;;;;;;;;;5346071;27;20027;-87
2021/12/29 09:59:31;;;;;;;11.60;9.38;;;;;;;;;;5352319;27;20062;-86
2021/12/29 10:02:03;;;;;;;16.45;9.73;;;;;;;;;;5352955;27;20020;-86
2021/12/29 10:04:36;;;;;;;11.43;8.65;;;;;;;;;;5354775;27;20024;-86
2021/12/29 10:07:18;;;;;;;14.27;8.40;;;;;;;;;;5354987;27;20016;-86
2021/12/29 10:09:49;;;;;;;13.65;8.25;;;;;;;;;;5353567;27;20414;-87
2021/12/29 10:12:22;;;;;;;14.77;7.70;;;;;;;;;;5347849;27;20024;-86
2021/12/29 10:14:55;;;;;;;10.75;7.25;;;;;;;;;;5345394;27;20051;-86
2021/12/29 10:17:27;;;;;;;12.40;7.03;;;;;;;;;;5346479;27;20024;-86
2021/12/29 10:20:05;;;;;;;15.60;8.23;;;;;;;;;;5345727;27;20019;-86
2021/12/29 10:22:36;;;;;;;13.85;7.45;;;;;;;;;;5359224;27;20061;-86
2021/12/29 10:25:11;;;;;;;13.02;7.43;;;;;;;;;;5367472;27;20432;-86
2021/12/29 10:27:45;;;;;;;10.00;7.00;;;;;;;;;;5367610;27;20031;-86
2021/12/29 10:30:17;;;;;;;15.15;7.60;;;;;;;;;;5368028;27;20034;-86
2021/12/29 10:32:52;;;;;;;12.27;7.20;;;;;;;;;;5345494;27;20035;-87
2021/12/29 10:35:25;;;;;;;16.60;7.90;;;;;;;;;;5337508;27;20494;-86
2021/12/29 10:38:14;;;;;;;374.35;296.75;;;;;;;;;;5326183;27;20389;-86
2021/12/29 10:40:48;;;;;;;11.20;6.60;;;;;;;;;;5344398;27;20495;-89
2021/12/29 10:43:42;;;;;;;15.95;6.30;;;;;;;;;;5343335;27;20028;-88
2021/12/29 10:46:20;;;;;;;9.05;5.70;;;;;;;;;;5344539;27;20043;-88
2021/12/29 10:48:54;;;;;;;17.80;6.63;;;;;;;;;;5344844;27;20043;-88
2021/12/29 10:51:37;;;;;;;9.73;5.30;;;;;;;;;;5338151;27;20076;-88
2021/12/29 10:54:31;;;;;;;10.38;6.40;;;;;;;;;;5346028;27;20476;-88
2021/12/29 10:57:22;;;;;;;13.88;5.43;;;;;;;;;;5334274;27;20110;-88
2021/12/29 10:59:59;;;;;;;10.00;5.25;;;;;;;;;;5337637;27;20134;-87
2021/12/29 11:02:35;;;;;;;12.15;5.65;;;;;;;;;;5345814;27;20027;-88
2021/12/29 11:05:08;;;;;;;10.80;5.75;;;;;;;;;;5343430;27;20031;-88
2021/12/29 11:07:40;;;;;;;9.95;5.40;;;;;;;;;;5345477;27;20036;-87
2021/12/29 11:10:13;;;;;;;26.58;16.95;;;;;;;;;;5346551;27;20024;-88
2021/12/29 11:12:44;;;;;;;10.38;5.47;;;;;;;;;;5346413;27;20062;-88
2021/12/29 11:15:39;;;;;;;13.15;5.68;;;;;;;;;;5345311;27;20400;-88
2021/12/29 11:18:11;;;;;;;11.90;5.28;;;;;;;;;;5340550;27;20058;-88
2021/12/29 11:20:43;;;;;;;13.70;5.70;;;;;;;;;;5342791;27;20031;-88
2021/12/29 11:23:15;;;;;;;14.80;5.38;;;;;;;;;;5345387;27;20386;-88
2021/12/29 11:25:47;;;;;;;12.38;5.18;;;;;;;;;;5344167;27;20491;-87
2021/12/29 11:28:19;;;;;;;13.20;5.72;;;;;;;;;;5345033;27;20030;-88
2021/12/29 11:30:51;;;;;;;13.18;5.40;;;;;;;;;;5345127;27;20062;-88
2021/12/29 11:33:23;;;;;;;12.70;5.22;;;;;;;;;;5340501;27;20031;-87
2021/12/29 11:35:54;;;;;;;10.68;5.65;;;;;;;;;;5352763;27;20015;-87
2021/12/29 11:38:26;;;;;;;12.48;6.30;;;;;;;;;;5340299;27;20039;-87
2021/12/29 11:40:59;;;;;;;14.40;6.60;;;;;;;;;;5342372;27;20028;-87
2021/12/29 11:43:31;;;;;;;14.90;6.28;;;;;;;;;;5341334;27;20115;-87
2021/12/29 11:46:02;;;;;;;17.67;6.65;;;;;;;;;;5339940;27;20028;-88
2021/12/29 11:48:34;;;;;;;15.68;7.03;;;;;;;;;;5343835;27;20038;-88
2021/12/29 11:51:05;;;;;;;17.92;7.82;;;;;;;;;;5342892;27;20106;-88
2021/12/29 11:53:55;;;;;;;18.50;7.10;;;;;;;;;;5325679;27;20039;-87
2021/12/29 11:56:26;;;;;;;20.88;7.57;;;;;;;;;;5322910;28;20475;-88
2021/12/29 11:59:03;;;;;;;18.05;7.22;;;;;;;;;;5323237;28;20052;-88
2021/12/29 12:01:35;;;;;;;17.33;8.05;;;;;;;;;;5322657;28;20035;-88
2021/12/29 12:04:09;;;;;;;19.95;8.63;;;;;;;;;;5333222;27;20039;-88
2021/12/29 12:06:41;;;;;;;20.95;8.38;;;;;;;;;;5342691;27;20023;-88
2021/12/29 12:09:15;;;;;;;21.70;8.70;;;;;;;;;;5344291;27;20028;-88
2021/12/29 12:11:49;;;;;;;17.98;8.30;;;;;;;;;;5343818;27;20077;-88
2021/12/29 12:14:22;;;;;;;19.80;8.40;;;;;;;;;;5343359;27;20051;-88
2021/12/29 12:16:58;;;;;;;19.20;10.13;;;;;;;;;;5346212;27;20012;-88
2021/12/29 12:19:30;;;;;;;20.77;8.65;;;;;;;;;;5343426;27;20020;-88
2021/12/29 12:22:09;;;;;;;17.85;7.68;;;;;;;;;;5347537;27;20027;-88
2021/12/29 12:24:44;;;;;;;17.50;7.75;;;;;;;;;;5348480;27;20130;-88
2021/12/29 12:27:27;;;;;;;15.75;7.80;;;;;;;;;;5347273;27;20100;-88
2021/12/29 12:30:04;;;;;;;15.80;7.53;;;;;;;;;;5347746;27;20034;-88
2021/12/29 12:32:41;;;;;;;22.35;7.97;;;;;;;;;;5348920;27;20024;-88
2021/12/29 12:35:14;;;;;;;17.13;8.20;;;;;;;;;;5345913;27;20031;-88
2021/12/29 12:37:46;;;;;;;18.25;7.00;;;;;;;;;;5348199;27;20031;-88
2021/12/29 12:40:24;;;;;;;20.90;8.10;;;;;;;;;;5348305;27;20020;-88
2021/12/29 12:43:01;;;;;;;17.17;7.78;;;;;;;;;;5342066;27;20028;-88
2021/12/29 12:45:32;;;;;;;;;;;;;;;;;;5328086;27;20090;-88
2021/12/29 12:48:09;;;;;;;14.15;6.57;;;;;;;;;;5359285;27;19919;-89
2021/12/29 12:50:43;;;;;;;21.60;8.73;;;;;;;;;;5362417;27;20027;-89
2021/12/29 12:53:16;;;;;;;17.65;6.95;;;;;;;;;;5364350;27;20020;-90
2021/12/29 12:55:49;;;;;;;18.30;6.65;;;;;;;;;;5359963;27;20101;-88
2021/12/29 12:58:20;;;;;;;16.23;7.28;;;;;;;;;;5362840;27;20020;-88
2021/12/29 18:05:09;;;;;;;89.55;49.90;;;;;;;10.93;100.00;100488.81;5335225;27;20380;-85
2021/12/29 18:07:41;;;;;;;83.72;48.05;;;;;;;11.03;100.00;100511.94;5319647;27;20050;-85
2021/12/29 18:10:15;;;;;;;86.00;51.15;;;;;;;11.07;100.00;100502.63;5321468;27;20025;-84
2021/12/29 18:12:48;;;;;;;85.53;49.38;;;;;;;11.15;100.00;100516.88;5316897;27;20036;-85
2021/12/29 18:15:20;;;;;;;90.75;51.25;;;;;;;11.17;100.00;100498.03;5302844;27;20029;-84
2021/12/29 18:17:51;;;;;;;78.85;53.03;;;;;;;11.21;100.00;100502.06;5306962;27;20031;-85
2021/12/29 18:20:23;;;;;;;82.82;53.55;;;;;;;11.28;100.00;100496.94;5312345;27;20047;-84
2021/12/29 18:22:55;;;;;;;87.03;51.60;;;;;;;11.24;100.00;100492.91;5323674;27;20179;-85
2021/12/29 18:25:26;;;;;;;84.07;50.00;;;;;;;11.30;100.00;100505.63;5318714;27;20119;-84
2021/12/29 18:27:58;;;;;;;78.57;47.42;;;;;;;11.32;100.00;100517.81;5316316;27;20028;-84
2021/12/29 18:30:29;;;;;;;83.18;49.72;;;;;;;11.42;100.00;100514.22;5308533;27;20393;-85
2021/12/29 18:33:01;;;;;;;76.72;51.40;;;;;;;11.40;100.00;100537.59;5313430;27;20044;-84
2021/12/29 18:35:32;;;;;;;78.93;52.20;;;;;;;11.44;100.00;100537.09;5309302;27;20033;-84
2021/12/29 18:38:06;;;;;;;78.93;47.33;;;;;;;11.44;100.00;100547.78;5310085;28;20059;-85
2021/12/29 18:40:39;;;;;;;77.45;50.95;;;;;;;11.46;100.00;100555.66;5310843;27;20746;-85
2021/12/29 18:43:12;;;;;;;75.60;49.80;;;;;;;11.45;100.00;100552.16;5306092;27;20035;-84
2021/12/29 18:45:44;;;;;;;70.65;51.35;;;;;;;11.56;100.00;100560.91;5315906;27;20032;-87
2021/12/29 18:48:16;;;;;;;70.00;41.33;;;;;;;11.55;100.00;100562.72;5318123;27;20093;-85
2021/12/29 18:50:48;;;;;;;68.47;42.35;;;;;;;11.57;100.00;100567.91;5316277;27;20020;-87
2021/12/29 18:53:19;;;;;;;68.05;40.95;;;;;;;11.56;100.00;100559.06;5317867;27;20032;-87
2021/12/29 18:55:50;;;;;;;69.00;42.92;;;;;;;11.56;100.00;100564.41;5315487;27;20016;-86
2021/12/29 18:58:22;;;;;;;56.83;32.45;;;;;;;11.69;100.00;100562.19;5319101;27;20028;-87
2021/12/29 19:00:55;;;;;;;61.50;35.65;;;;;;;11.64;100.00;100575.16;5325846;27;20097;-86
2021/12/29 19:03:27;;;;;;;52.25;34.10;;;;;;;11.75;100.00;100576.75;5322824;27;20063;-86
2021/12/29 19:05:59;;;;;;;56.20;32.10;;;;;;;11.69;100.00;100567.53;5308475;27;20025;-86
2021/12/29 19:08:30;;;;;;;52.78;31.70;;;;;;;11.71;100.00;100588.72;5301409;28;20032;-86
2021/12/29 19:11:02;;;;;;;52.72;31.10;;;;;;;11.72;100.00;100588.56;5302946;28;20021;-85
2021/12/29 19:13:33;;;;;;;48.72;27.52;;;;;;;11.78;100.00;100594.28;5317272;27;20138;-86
2021/12/29 19:16:05;;;;;;;45.38;26.02;;;;;;;11.69;100.00;100601.41;5312945;28;20043;-85
2021/12/29 19:18:36;;;;;;;44.88;23.70;;;;;;;11.76;100.00;100614.97;5307480;28;20107;-85
2021/12/29 19:21:08;;;;;;;44.47;22.08;;;;;;;11.64;100.00;100625.06;5317001;28;20129;-87
2021/12/29 19:23:39;;;;;;;37.08;20.63;;;;;;;11.63;100.00;100631.41;5319565;28;22402;-87
2021/12/29 19:26:10;;;;;;;44.55;22.15;;;;;;;11.59;100.00;100616.66;5318712;28;20027;-85
2021/12/29 19:28:42;;;;;;;44.25;22.27;;;;;;;11.60;100.00;100624.53;5315199;28;20091;-87
2021/12/29 19:31:14;;;;;;;41.72;19.88;;;;;;;11.65;100.00;100616.91;5321161;28;20009;-86
2021/12/29 19:33:46;;;;;;;41.10;19.52;;;;;;;11.55;100.00;100629.50;5328186;27;20039;-86
2021/12/29 19:36:19;;;;;;;40.90;20.13;;;;;;;11.48;100.00;100639.13;5317589;28;20024;-86